Time;durP1;ratioP1;P1;durP2;ratioP2;P2;SDS_P1;SDS_P2;PMS_P1;PMS_P2;Temp;Humidity;BMP_temperature;BMP_pressure;BME280_temperature;BME280_humidity;BME280_pressure;Samples;Min_cycle;Max_cycle;Signal;HPM_P1;HPM_P2
2023/07/23 00:00:52;;;;;;;34.13;30.33;;;18.50;99.90;;;;;;4972218;28;20086;-61
2023/07/23 00:03:18;;;;;;;34.65;31.45;;;18.80;99.90;;;;;;4972332;28;20069;-62
2023/07/23 00:05:47;;;;;;;33.25;29.83;;;19.10;99.90;;;;;;4971697;28;20138;-61
2023/07/23 00:08:13;;;;;;;31.30;27.98;;;17.90;99.90;;;;;;4971398;28;20045;-61
2023/07/23 00:10:39;;;;;;;32.92;29.77;;;18.10;99.90;;;;;;4972292;28;20093;-61
2023/07/23 00:13:05;;;;;;;31.10;28.15;;;19.30;99.90;;;;;;4972240;28;20447;-61
2023/07/23 00:15:30;;;;;;;30.63;27.75;;;18.30;99.90;;;;;;4970234;28;20162;-62
2023/07/23 00:17:58;;;;;;;31.58;28.25;;;19.10;99.90;;;;;;4971846;28;20035;-62
2023/07/23 00:20:23;;;;;;;29.48;26.73;;;19.30;99.90;;;;;;4972211;28;20043;-62
2023/07/23 00:22:49;;;;;;;32.20;28.83;;;18.40;99.90;;;;;;4972077;28;20041;-62
2023/07/23 00:25:15;;;;;;;31.00;27.98;;;19.20;99.90;;;;;;4971441;28;20046;-62
2023/07/23 00:27:40;;;;;;;31.15;27.65;;;17.90;99.90;;;;;;4970116;28;20043;-61
2023/07/23 00:30:06;;;;;;;32.38;29.48;;;18.60;99.90;;;;;;4972002;28;20516;-62
2023/07/23 00:32:32;;;;;;;28.73;25.90;;;18.30;99.90;;;;;;4971521;28;20469;-62
2023/07/23 00:34:58;;;;;;;30.73;27.85;;;19.30;99.90;;;;;;4971379;28;20074;-61
2023/07/23 00:37:23;;;;;;;30.50;27.52;;;17.80;99.90;;;;;;4971021;28;20054;-62
2023/07/23 00:39:49;;;;;;;29.65;27.15;;;19.30;99.90;;;;;;4971681;28;20051;-62
2023/07/23 00:42:14;;;;;;;30.73;28.02;;;17.90;99.90;;;;;;4971849;28;20101;-62
2023/07/23 00:44:40;;;;;;;28.95;26.42;;;18.90;99.90;;;;;;4971113;28;20038;-62
2023/07/23 00:47:06;;;;;;;29.48;26.40;;;19.40;99.90;;;;;;4971308;28;20035;-62
2023/07/23 00:49:32;;;;;;;30.65;27.73;;;19.40;99.90;;;;;;4971338;28;20038;-61
2023/07/23 00:51:59;;;;;;;29.67;26.60;;;17.80;99.90;;;;;;4971799;28;20114;-62
2023/07/23 00:54:24;;;;;;;30.92;28.30;;;19.20;99.90;;;;;;4971778;28;20039;-62
2023/07/23 00:56:50;;;;;;;30.63;27.65;;;18.60;99.90;;;;;;4970779;28;20488;-62
2023/07/23 00:59:17;;;;;;;29.10;26.02;;;18.60;99.90;;;;;;4954246;28;20050;-61
2023/07/23 01:01:42;;;;;;;28.52;25.75;;;19.30;99.90;;;;;;4972018;28;20042;-62
2023/07/23 01:04:08;;;;;;;29.30;26.42;;;17.80;99.90;;;;;;4970437;28;20515;-61
2023/07/23 01:06:36;;;;;;;31.63;27.08;;;19.40;99.90;;;;;;4965500;28;20428;-62
2023/07/23 01:09:03;;;;;;;28.27;25.60;;;17.80;99.90;;;;;;4976739;28;20042;-62
2023/07/23 01:11:31;;;;;;;29.48;26.45;;;19.40;99.90;;;;;;4976816;28;20126;-62
2023/07/23 01:13:59;;;;;;;30.48;27.50;;;18.90;99.90;;;;;;4977510;28;20057;-62
2023/07/23 01:16:24;;;;;;;31.30;28.20;;;19.40;99.90;;;;;;4976184;28;20042;-62
2023/07/23 01:18:51;;;;;;;30.20;27.45;;;18.20;99.90;;;;;;4977883;28;20503;-62
2023/07/23 01:21:17;;;;;;;30.27;27.38;;;19.30;99.90;;;;;;4977714;28;20097;-62
2023/07/23 01:23:43;;;;;;;33.08;29.73;;;19.50;99.90;;;;;;4975952;28;20046;-62
2023/07/23 01:26:10;;;;;;;33.33;29.75;;;17.80;99.90;;;;;;4966062;28;20077;-61
2023/07/23 01:28:36;;;;;;;35.28;32.00;;;19.00;99.90;;;;;;4977640;28;20039;-62
2023/07/23 01:31:02;;;;;;;35.67;31.77;;;18.20;99.90;;;;;;4977673;28;20034;-61
2023/07/23 01:33:28;;;;;;;35.85;32.35;;;17.90;99.90;;;;;;4976000;28;20096;-62
2023/07/23 01:35:56;;;;;;;34.70;31.20;;;19.10;99.90;;;;;;4976417;28;20047;-61
2023/07/23 01:38:23;;;;;;;36.10;31.42;;;19.50;99.90;;;;;;4976165;28;20121;-61
2023/07/23 01:40:50;;;;;;;35.97;32.30;;;19.40;99.90;;;;;;4977521;28;20043;-62
2023/07/23 01:43:16;;;;;;;36.15;32.42;;;17.90;99.90;;;;;;4977458;28;20047;-62
2023/07/23 01:45:45;;;;;;;36.13;32.60;;;19.40;99.90;;;;;;4976650;28;20500;-62
2023/07/23 01:48:15;;;;;;;35.85;32.45;;;19.40;99.90;;;;;;4977158;28;20038;-61
2023/07/23 01:50:40;;;;;;;35.67;32.47;;;18.60;99.90;;;;;;4967637;28;20552;-62
2023/07/23 01:53:06;;;;;;;34.72;31.20;;;19.10;99.90;;;;;;4976991;28;20074;-62
2023/07/23 01:55:32;;;;;;;34.25;31.25;;;18.90;99.90;;;;;;4976609;28;20046;-62
2023/07/23 01:57:58;;;;;;;36.42;32.92;;;19.50;99.90;;;;;;4977269;28;20117;-62
2023/07/23 02:00:24;;;;;;;35.70;32.38;;;18.70;99.90;;;;;;4976141;28;20400;-62
2023/07/23 02:02:49;;;;;;;36.92;33.42;;;18.00;99.90;;;;;;4976862;28;20054;-62
2023/07/23 02:05:17;;;;;;;35.88;32.42;;;18.20;99.90;;;;;;4976809;28;20121;-62
2023/07/23 02:07:43;;;;;;;36.72;33.28;;;19.20;99.90;;;;;;4977413;28;20122;-62
2023/07/23 02:10:10;;;;;;;37.50;33.88;;;18.30;99.90;;;;;;4977458;28;20627;-62
2023/07/23 02:12:36;;;;;;;37.20;33.55;;;18.20;99.90;;;;;;4976359;28;20058;-61
2023/07/23 02:15:01;;;;;;;36.28;33.08;;;19.40;99.90;;;;;;4977029;28;20042;-62
2023/07/23 02:17:27;;;;;;;36.33;32.92;;;18.80;99.90;;;;;;4977306;28;20133;-62
2023/07/23 02:19:52;;;;;;;37.75;34.28;;;19.60;99.90;;;;;;4973932;28;20046;-62
2023/07/23 02:22:18;;;;;;;36.63;33.05;;;18.80;99.90;;;;;;4973837;28;20070;-62
2023/07/23 02:24:44;;;;;;;34.90;31.80;;;19.30;99.90;;;;;;4973829;28;20113;-62
2023/07/23 02:27:10;;;;;;;37.17;33.50;;;19.50;99.90;;;;;;4973426;28;20449;-61
2023/07/23 02:29:36;;;;;;;36.58;33.15;;;19.70;99.90;;;;;;4974448;28;20034;-62
2023/07/23 02:32:02;;;;;;;36.88;33.25;;;18.20;99.90;;;;;;4974145;28;20081;-62
2023/07/23 02:34:28;;;;;;;37.28;33.67;;;19.60;99.90;;;;;;4973757;28;20034;-62
2023/07/23 02:36:53;;;;;;;36.10;32.47;;;18.50;99.90;;;;;;4969401;28;20059;-63
2023/07/23 02:39:19;;;;;;;38.38;34.38;;;19.60;99.90;;;;;;4973732;28;20038;-62
2023/07/23 02:41:45;;;;;;;37.47;33.35;;;19.70;99.90;;;;;;4972818;28;20113;-62
2023/07/23 02:44:12;;;;;;;36.95;33.63;;;18.20;99.90;;;;;;4971987;28;20468;-61
2023/07/23 02:46:38;;;;;;;36.67;33.17;;;19.70;99.90;;;;;;4973888;28;20039;-62
2023/07/23 02:49:03;;;;;;;38.13;34.25;;;18.70;99.90;;;;;;4973404;28;20057;-62
2023/07/23 02:51:29;;;;;;;37.25;33.75;;;19.70;99.90;;;;;;4973401;28;20050;-62
2023/07/23 02:53:54;;;;;;;37.42;33.72;;;18.20;99.90;;;;;;4972620;28;20066;-62
2023/07/23 02:56:20;;;;;;;38.00;34.22;;;19.80;99.90;;;;;;4973271;28;20516;-62
2023/07/23 02:58:46;;;;;;;38.58;34.55;;;19.10;99.90;;;;;;4973382;28;20512;-61
2023/07/23 03:01:12;;;;;;;37.83;34.33;;;18.30;99.90;;;;;;4973459;28;20039;-62
2023/07/23 03:03:37;;;;;;;38.33;34.63;;;19.70;99.90;;;;;;4971800;28;20066;-62
2023/07/23 03:06:06;;;;;;;39.15;35.30;;;20.90;99.90;;;;;;4972322;28;20500;-62
2023/07/23 03:08:32;;;;;;;37.13;33.67;;;18.90;99.90;;;;;;4961500;28;20512;-62
2023/07/23 03:10:57;;;;;;;38.97;35.10;;;19.40;99.90;;;;;;4973074;28;20054;-62
2023/07/23 03:13:23;;;;;;;38.90;34.80;;;18.30;99.90;;;;;;4973040;28;20046;-62
2023/07/23 03:15:49;;;;;;;36.80;33.10;;;19.30;99.90;;;;;;4972567;28;20042;-62
2023/07/23 03:18:15;;;;;;;37.47;33.47;;;20.00;99.90;;;;;;4973417;28;20053;-62
2023/07/23 03:20:40;;;;;;;37.33;33.72;;;19.30;99.90;;;;;;4973160;28;20031;-62
2023/07/23 03:23:06;;;;;;;38.10;34.17;;;18.60;99.90;;;;;;4972344;28;20043;-62
2023/07/23 03:25:31;;;;;;;38.22;34.47;;;20.00;99.90;;;;;;4972303;28;20047;-62
2023/07/23 03:27:59;;;;;;;38.53;34.63;;;20.00;99.90;;;;;;4973004;28;20050;-62
2023/07/23 03:30:26;;;;;;;38.85;34.78;;;20.00;99.90;;;;;;4971747;28;20506;-62
2023/07/23 03:32:52;;;;;;;38.00;34.30;;;18.70;99.90;;;;;;4972417;28;20045;-63
2023/07/23 03:35:19;;;;;;;38.47;33.00;;;19.40;99.90;;;;;;4971975;28;20035;-63
2023/07/23 03:37:45;;;;;;;35.70;32.28;;;20.00;99.90;;;;;;4972963;28;20130;-63
2023/07/23 03:40:11;;;;;;;37.08;33.15;;;18.20;99.90;;;;;;4971211;28;20518;-63
2023/07/23 03:42:37;;;;;;;38.75;34.67;;;18.30;99.90;;;;;;4972116;28;20125;-63
2023/07/23 03:45:04;;;;;;;37.63;33.95;;;19.40;99.90;;;;;;4971471;28;20050;-63
2023/07/23 03:47:30;;;;;;;39.13;35.03;;;18.90;99.90;;;;;;4972776;28;20043;-63
2023/07/23 03:49:55;;;;;;;38.17;34.47;;;19.10;99.90;;;;;;4972383;28;20042;-62
2023/07/23 03:52:22;;;;;;;38.58;34.75;;;18.20;99.90;;;;;;4972048;28;20039;-63
2023/07/23 03:54:48;;;;;;;38.50;34.35;;;18.20;99.90;;;;;;4953346;28;20118;-63
2023/07/23 03:57:13;;;;;;;38.55;34.53;;;18.20;99.90;;;;;;4970938;28;20125;-63
2023/07/23 03:59:41;;;;;;;39.17;35.15;;;19.70;99.90;;;;;;4972253;28;20038;-63
2023/07/23 04:02:08;;;;;;;38.47;34.78;;;18.90;99.90;;;;;;4972058;28;20073;-63
2023/07/23 04:04:34;;;;;;;38.08;34.40;;;18.70;99.90;;;;;;4969990;28;20090;-63
2023/07/23 04:07:01;;;;;;;38.88;34.97;;;19.50;99.90;;;;;;4971605;28;20042;-63
2023/07/23 04:09:26;;;;;;;37.88;34.28;;;19.90;99.90;;;;;;4971545;28;20034;-63
2023/07/23 04:11:52;;;;;;;39.15;35.20;;;19.80;99.90;;;;;;4971705;28;20088;-63
2023/07/23 04:14:17;;;;;;;37.90;34.28;;;18.70;99.90;;;;;;4972311;28;20042;-63
2023/07/23 04:16:43;;;;;;;40.10;35.47;;;19.80;99.90;;;;;;4971366;28;20043;-63
2023/07/23 04:19:09;;;;;;;39.80;35.78;;;18.90;99.90;;;;;;4971444;28;20046;-62
2023/07/23 04:21:34;;;;;;;41.92;37.65;;;20.10;99.90;;;;;;4972100;28;20038;-63
2023/07/23 04:24:00;;;;;;;42.28;38.13;;;19.70;99.90;;;;;;4971512;28;20041;-63
2023/07/23 04:26:30;;;;;;;40.28;36.25;;;18.50;99.90;;;;;;4971757;28;20533;-62
2023/07/23 04:28:55;;;;;;;39.75;35.88;;;18.50;99.90;;;;;;4972039;28;20548;-63
2023/07/23 04:31:21;;;;;;;39.65;35.67;;;18.60;99.90;;;;;;4971911;28;20165;-62
2023/07/23 04:33:47;;;;;;;40.42;36.47;;;19.20;99.90;;;;;;4971318;28;20522;-63
2023/07/23 04:36:13;;;;;;;39.47;35.70;;;20.10;99.90;;;;;;4971320;28;20471;-63
2023/07/23 04:38:40;;;;;;;40.90;36.85;;;20.10;99.90;;;;;;4971404;28;20156;-62
2023/07/23 04:41:06;;;;;;;39.65;36.00;;;18.30;99.90;;;;;;4962386;28;20042;-62
2023/07/23 04:43:33;;;;;;;38.60;35.00;;;20.10;99.90;;;;;;4971460;28;20041;-62
2023/07/23 04:45:58;;;;;;;37.88;34.38;;;19.40;99.90;;;;;;4971872;28;20042;-62
2023/07/23 04:48:25;;;;;;;37.33;33.80;;;20.00;99.90;;;;;;4974744;28;20043;-62
2023/07/23 04:51:02;;;;;;;38.90;35.10;;;20.20;99.90;;;;;;4972978;28;20097;-62
2023/07/23 04:53:28;;;;;;;38.90;35.10;;;18.30;99.90;;;;;;4971127;28;20034;-63
2023/07/23 04:55:55;;;;;;;39.63;35.72;;;19.10;99.90;;;;;;4970442;28;20093;-63
2023/07/23 04:58:21;;;;;;;38.88;35.38;;;20.20;99.90;;;;;;4971476;28;20485;-63
2023/07/23 05:00:47;;;;;;;39.10;35.20;;;18.20;99.90;;;;;;4971337;28;20074;-62
2023/07/23 05:03:13;;;;;;;39.10;35.20;;;20.20;99.90;;;;;;4970394;28;20555;-63
2023/07/23 05:05:45;;;;;;;39.63;35.88;;;19.40;99.90;;;;;;4971382;28;20054;-63
2023/07/23 05:08:11;;;;;;;39.58;35.72;;;18.40;99.90;;;;;;4971176;28;20038;-63
2023/07/23 05:10:36;;;;;;;39.15;35.42;;;20.20;99.90;;;;;;4971596;28;20049;-63
2023/07/23 05:13:02;;;;;;;40.25;36.40;;;20.10;99.90;;;;;;4971288;28;20083;-63
2023/07/23 05:15:28;;;;;;;39.38;35.63;;;19.40;99.90;;;;;;4971979;28;20500;-63
2023/07/23 05:17:54;;;;;;;39.85;35.83;;;20.30;99.90;;;;;;4971485;28;20118;-63
2023/07/23 05:20:20;;;;;;;39.83;35.90;;;18.80;99.90;;;;;;4971620;28;20038;-63
2023/07/23 05:22:45;;;;;;;39.83;36.17;;;20.30;99.90;;;;;;4971125;28;20038;-64
2023/07/23 05:25:11;;;;;;;39.45;35.42;;;18.60;99.90;;;;;;4971283;28;20082;-64
2023/07/23 05:27:37;;;;;;;38.95;35.35;;;19.00;99.90;;;;;;4971380;28;20555;-64
2023/07/23 05:30:03;;;;;;;38.47;34.95;;;18.30;99.90;;;;;;4970030;28;20475;-64
2023/07/23 05:32:30;;;;;;;38.97;35.33;;;19.60;99.90;;;;;;4970334;28;20043;-63
2023/07/23 05:34:56;;;;;;;38.88;34.85;;;19.80;99.90;;;;;;4970295;28;20051;-64
2023/07/23 05:37:22;;;;;;;37.47;33.95;;;18.90;99.90;;;;;;4971534;28;20500;-64
2023/07/23 05:39:48;;;;;;;38.92;35.35;;;18.30;99.90;;;;;;4965811;28;20464;-64
2023/07/23 05:42:14;;;;;;;38.30;34.80;;;18.50;99.90;;;;;;4971319;28;20055;-64
2023/07/23 05:44:39;;;;;;;38.42;34.83;;;20.10;99.90;;;;;;4970863;28;20054;-63
2023/07/23 05:47:06;;;;;;;39.88;36.17;;;18.30;99.90;;;;;;4971649;28;20031;-63
2023/07/23 05:49:31;;;;;;;38.08;34.47;;;18.50;99.90;;;;;;4970008;28;20088;-63
2023/07/23 05:52:00;;;;;;;41.90;37.70;;;18.60;99.90;;;;;;4970805;28;20035;-63
2023/07/23 05:54:26;;;;;;;40.13;35.95;;;18.30;99.90;;;;;;4972701;28;20404;-63
2023/07/23 05:56:52;;;;;;;40.03;36.13;;;20.20;99.90;;;;;;4973211;28;20038;-63
2023/07/23 05:59:17;;;;;;;39.97;36.38;;;20.20;99.90;;;;;;4974154;28;20038;-63
2023/07/23 06:01:43;;;;;;;41.00;36.78;;;18.40;99.90;;;;;;4963446;28;20059;-63
2023/07/23 06:04:08;;;;;;;39.88;36.08;;;18.60;99.90;;;;;;4964528;28;20066;-64
2023/07/23 06:06:34;;;;;;;39.55;35.53;;;18.40;99.90;;;;;;4967213;28;20039;-65
2023/07/23 06:09:00;;;;;;;40.03;36.30;;;19.40;99.90;;;;;;4963512;28;20042;-63
2023/07/23 06:11:26;;;;;;;40.60;36.53;;;18.50;99.90;;;;;;4968463;28;20043;-63
2023/07/23 06:13:51;;;;;;;39.72;36.05;;;19.10;99.90;;;;;;4967914;28;20031;-63
2023/07/23 06:16:17;;;;;;;39.83;35.90;;;19.20;99.90;;;;;;4972951;28;20102;-63
2023/07/23 06:18:42;;;;;;;40.28;36.30;;;20.20;99.90;;;;;;4964860;28;20073;-64
2023/07/23 06:21:08;;;;;;;39.63;35.80;;;19.60;99.90;;;;;;4972205;28;20041;-64
2023/07/23 06:23:34;;;;;;;39.42;35.83;;;19.50;99.90;;;;;;4966254;28;20108;-64
2023/07/23 06:26:00;;;;;;;40.22;36.13;;;18.40;99.90;;;;;;4974052;28;20059;-64
2023/07/23 06:28:26;;;;;;;40.20;36.22;;;18.50;99.90;;;;;;4974458;28;20504;-64
2023/07/23 06:30:55;;;;;;;40.50;36.35;;;19.00;99.90;;;;;;4974149;28;20042;-64
2023/07/23 06:33:21;;;;;;;39.38;35.40;;;20.50;99.90;;;;;;4974020;28;20057;-64
2023/07/23 06:35:47;;;;;;;38.50;34.83;;;19.00;99.90;;;;;;4971629;28;20043;-64
2023/07/23 06:38:14;;;;;;;39.25;35.47;;;20.60;99.90;;;;;;4974018;28;20293;-64
2023/07/23 06:40:46;;;;;;;38.67;34.97;;;20.50;99.90;;;;;;4973169;28;20046;-64
2023/07/23 06:43:13;;;;;;;38.67;34.83;;;20.50;99.90;;;;;;4971731;28;20039;-65
2023/07/23 06:45:39;;;;;;;39.75;35.92;;;20.70;99.90;;;;;;4972381;28;20066;-64
2023/07/23 06:48:04;;;;;;;39.22;35.47;;;20.40;99.90;;;;;;4974106;28;20049;-65
2023/07/23 06:50:31;;;;;;;39.15;35.33;;;19.60;99.90;;;;;;4971415;28;20455;-65
2023/07/23 06:52:57;;;;;;;37.03;33.15;;;20.60;99.90;;;;;;4965279;28;20054;-64
2023/07/23 06:55:23;;;;;;;36.97;33.63;;;19.20;99.90;;;;;;4964966;28;20130;-64
2023/07/23 06:57:48;;;;;;;36.92;33.25;;;20.10;99.90;;;;;;4971856;28;20547;-64
2023/07/23 07:00:14;;;;;;;38.25;34.78;;;20.90;99.90;;;;;;4972317;28;20121;-64
2023/07/23 07:02:40;;;;;;;37.05;33.53;;;19.00;99.90;;;;;;4972463;28;20047;-64
2023/07/23 07:05:06;;;;;;;38.72;35.17;;;20.20;99.90;;;;;;4970560;28;20533;-64
2023/07/23 07:07:31;;;;;;;38.00;34.08;;;20.90;99.90;;;;;;4970916;28;20122;-64
2023/07/23 07:09:57;;;;;;;39.47;36.03;;;19.50;99.90;;;;;;4968954;28;20073;-64
2023/07/23 07:12:24;;;;;;;37.75;34.25;;;19.70;99.90;;;;;;4972018;28;20374;-64
2023/07/23 07:14:49;;;;;;;38.55;35.13;;;19.20;99.90;;;;;;4972245;28;20544;-64
2023/07/23 07:17:15;;;;;;;40.13;36.33;;;21.10;99.90;;;;;;4971066;28;20119;-63
2023/07/23 07:19:41;;;;;;;39.78;36.00;;;20.80;99.90;;;;;;4972335;28;20485;-64
2023/07/23 07:22:06;;;;;;;38.88;35.35;;;19.20;99.90;;;;;;4967299;28;20623;-64
2023/07/23 07:24:32;;;;;;;38.42;34.83;;;19.60;99.90;;;;;;4964713;28;20043;-64
2023/07/23 07:26:58;;;;;;;41.80;37.55;;;21.00;99.90;;;;;;4966963;28;20125;-64
2023/07/23 07:29:23;;;;;;;40.78;36.58;;;18.90;99.90;;;;;;4970849;28;20042;-64
2023/07/23 07:31:49;;;;;;;42.38;38.38;;;20.50;99.90;;;;;;4968053;28;20047;-64
2023/07/23 07:34:14;;;;;;;44.42;40.15;;;19.60;99.90;;;;;;4971992;28;20464;-63
2023/07/23 07:36:40;;;;;;;42.63;38.15;;;21.10;99.90;;;;;;4971764;28;20444;-64
2023/07/23 07:39:06;;;;;;;42.40;37.90;;;19.40;99.90;;;;;;4970812;28;20101;-64
2023/07/23 07:41:31;;;;;;;43.47;39.40;;;20.20;99.90;;;;;;4966507;28;20046;-64
2023/07/23 07:43:57;;;;;;;44.55;40.40;;;19.70;99.90;;;;;;4969353;28;20042;-64
2023/07/23 07:46:23;;;;;;;42.80;38.50;;;19.10;99.90;;;;;;4971930;28;20105;-64
2023/07/23 07:48:49;;;;;;;45.13;40.88;;;21.20;99.90;;;;;;4971759;28;20512;-64
2023/07/23 07:51:14;;;;;;;43.58;39.08;;;19.00;99.90;;;;;;4969334;28;20031;-64
2023/07/23 07:53:40;;;;;;;45.03;40.58;;;19.10;99.90;;;;;;4969363;28;20138;-64
2023/07/23 07:56:12;;;;;;;44.10;39.80;;;20.90;99.90;;;;;;4964572;28;20038;-64
2023/07/23 07:58:38;;;;;;;44.15;40.05;;;21.40;99.90;;;;;;4969200;28;20038;-64
2023/07/23 08:01:04;;;;;;;46.45;41.58;;;21.40;99.90;;;;;;4967984;28;20046;-64
2023/07/23 08:03:32;;;;;;;43.80;39.58;;;19.50;99.90;;;;;;4969507;28;20457;-64
2023/07/23 08:05:58;;;;;;;43.05;39.10;;;21.30;99.90;;;;;;4971179;28;20049;-64
2023/07/23 08:08:29;;;;;;;42.92;39.00;;;19.10;99.90;;;;;;4969554;28;20034;-64
2023/07/23 08:10:56;;;;;;;45.08;40.80;;;20.00;99.90;;;;;;4971631;28;20057;-63
2023/07/23 08:13:22;;;;;;;44.30;40.05;;;19.10;99.90;;;;;;4971912;28;20396;-64
2023/07/23 08:15:48;;;;;;;46.67;42.42;;;19.40;99.90;;;;;;4970056;28;20043;-64
2023/07/23 08:18:14;;;;;;;43.72;39.67;;;21.50;99.90;;;;;;4965492;28;20078;-64
2023/07/23 08:20:40;;;;;;;45.55;41.42;;;21.60;99.90;;;;;;4967827;28;20086;-63
2023/07/23 08:23:06;;;;;;;43.03;39.10;;;19.90;99.90;;;;;;4969263;28;20073;-64
2023/07/23 08:25:33;;;;;;;43.22;39.22;;;19.50;99.90;;;;;;4971803;28;20053;-64
2023/07/23 08:28:00;;;;;;;42.90;38.95;;;19.40;99.90;;;;;;4971025;28;20050;-64
2023/07/23 08:30:27;;;;;;;43.03;39.05;;;21.40;99.90;;;;;;4968252;28;20066;-64
2023/07/23 08:32:57;;;;;;;40.92;37.22;;;20.20;99.90;;;;;;4970891;28;20098;-64
2023/07/23 08:35:24;;;;;;;41.67;37.78;;;19.30;99.90;;;;;;4965535;28;20252;-64
2023/07/23 08:37:50;;;;;;;42.25;38.40;;;20.30;99.90;;;;;;4965327;28;20050;-65
2023/07/23 08:40:17;;;;;;;41.58;37.78;;;21.30;99.90;;;;;;4970504;28;20042;-65
2023/07/23 08:42:55;;;;;;;42.80;38.83;;;20.90;99.90;;;;;;4969286;28;20043;-64
2023/07/23 08:46:09;;;;;;;44.42;40.33;;;19.20;99.90;;;;;;4970727;28;20034;-65
2023/07/23 08:48:56;;;;;;;44.53;40.13;;;19.20;99.90;;;;;;4971700;28;20401;-65
2023/07/23 08:51:26;;;;;;;;;;;19.20;99.90;;;;;;4971636;28;20035;-66
2023/07/23 08:53:52;;;;;;;45.55;41.35;;;19.10;99.90;;;;;;4971341;28;19918;-65
2023/07/23 08:56:19;;;;;;;45.65;41.22;;;19.40;99.90;;;;;;4970197;28;20070;-65
2023/07/23 08:58:45;;;;;;;46.45;41.97;;;19.20;99.90;;;;;;4971363;28;20038;-65
2023/07/23 09:01:16;;;;;;;46.33;41.90;;;21.40;99.90;;;;;;4969803;28;20097;-65
2023/07/23 09:03:42;;;;;;;47.75;42.53;;;19.30;99.90;;;;;;4971219;28;20061;-65
2023/07/23 09:06:09;;;;;;;46.13;41.38;;;21.40;99.90;;;;;;4969502;28;20058;-65
2023/07/23 09:08:36;;;;;;;45.20;40.90;;;19.30;99.90;;;;;;4971321;28;20130;-65
2023/07/23 09:11:04;;;;;;;43.90;39.90;;;19.50;99.90;;;;;;4969667;28;20066;-64
2023/07/23 09:13:34;;;;;;;45.08;40.70;;;19.40;99.90;;;;;;4970171;28;20043;-65
2023/07/23 09:16:00;;;;;;;45.22;40.92;;;19.40;99.90;;;;;;4970776;28;20046;-65
2023/07/23 09:18:26;;;;;;;47.58;42.75;;;19.40;99.90;;;;;;4970274;28;20050;-65
2023/07/23 09:20:51;;;;;;;47.03;42.53;;;21.20;99.90;;;;;;4971176;28;20050;-65
2023/07/23 09:23:17;;;;;;;45.22;41.00;;;20.50;99.90;;;;;;4971145;28;20042;-65
2023/07/23 09:25:44;;;;;;;48.00;43.10;;;21.10;99.90;;;;;;4971179;28;20043;-65
2023/07/23 09:28:23;;;;;;;47.38;42.55;;;19.80;99.90;;;;;;4972955;28;20097;-64
2023/07/23 09:30:52;;;;;;;47.13;42.83;;;21.40;99.90;;;;;;4968710;28;20043;-65
2023/07/23 09:33:17;;;;;;;46.78;42.35;;;20.20;99.90;;;;;;4954223;28;20046;-64
2023/07/23 09:35:43;;;;;;;47.13;42.15;;;22.20;99.90;;;;;;4972819;28;20050;-64
2023/07/23 09:38:12;;;;;;;48.80;43.97;;;20.80;99.90;;;;;;4975221;28;20042;-64
2023/07/23 09:40:40;;;;;;;47.88;43.50;;;22.10;99.90;;;;;;4974760;28;20046;-64
2023/07/23 09:43:06;;;;;;;51.15;46.08;;;22.20;99.90;;;;;;4955721;28;20039;-64
2023/07/23 09:45:36;;;;;;;50.78;45.90;;;22.00;99.90;;;;;;4968531;28;20102;-64
2023/07/23 09:48:02;;;;;;;49.40;44.88;;;21.60;99.90;;;;;;4975019;28;20047;-65
2023/07/23 09:50:29;;;;;;;49.90;45.03;;;22.00;99.90;;;;;;4977073;28;20093;-64
2023/07/23 09:52:55;;;;;;;48.05;43.65;;;19.60;99.90;;;;;;4974231;28;20551;-64
2023/07/23 09:55:21;;;;;;;49.67;44.90;;;21.90;99.90;;;;;;4963949;28;20043;-64
2023/07/23 09:57:49;;;;;;;47.10;42.80;;;21.40;99.90;;;;;;4962305;28;20453;-64
2023/07/23 10:00:15;;;;;;;49.85;44.97;;;22.00;99.90;;;;;;4973496;28;20141;-64
2023/07/23 10:02:45;;;;;;;48.80;44.50;;;22.20;99.90;;;;;;4973992;28;20125;-64
2023/07/23 10:05:12;;;;;;;47.63;43.05;;;22.20;99.90;;;;;;4973642;28;20110;-64
2023/07/23 10:07:39;;;;;;;47.08;42.80;;;20.10;99.90;;;;;;4972379;28;20035;-64
2023/07/23 10:10:06;;;;;;;49.15;44.40;;;21.30;99.90;;;;;;4974647;28;20039;-63
2023/07/23 10:12:31;;;;;;;49.50;44.78;;;22.10;99.90;;;;;;4974073;28;20073;-63
2023/07/23 10:14:57;;;;;;;51.25;46.53;;;21.80;99.90;;;;;;4974262;28;20465;-64
2023/07/23 10:17:24;;;;;;;49.03;44.53;;;20.40;99.90;;;;;;4974479;28;20639;-64
2023/07/23 10:19:52;;;;;;;47.78;43.30;;;19.60;99.90;;;;;;4972925;28;20050;-64
2023/07/23 10:22:18;;;;;;;47.47;43.15;;;21.70;99.90;;;;;;4973974;28;20046;-64
2023/07/23 10:24:49;;;;;;;46.53;42.15;;;22.30;99.90;;;;;;4974162;28;20043;-64
2023/07/23 10:27:16;;;;;;;47.70;43.40;;;20.40;99.90;;;;;;4972774;28;20058;-63
2023/07/23 10:30:18;;;;;;;46.42;42.15;;;19.80;99.90;;;;;;4973949;28;20042;-63
2023/07/23 10:32:45;;;;;;;46.88;42.58;;;20.40;99.90;;;;;;4973911;28;20046;-64
2023/07/23 10:35:10;;;;;;;47.72;43.10;;;22.00;99.90;;;;;;4967401;28;20034;-63
2023/07/23 10:37:36;;;;;;;47.08;42.95;;;21.30;99.90;;;;;;4973698;28;20039;-64
2023/07/23 10:40:03;;;;;;;48.97;44.22;;;21.30;99.90;;;;;;4972878;28;20389;-63
2023/07/23 10:42:34;;;;;;;45.42;41.17;;;21.60;99.90;;;;;;4974395;28;20035;-64
2023/07/23 10:45:21;;;;;;;45.25;41.08;;;22.40;99.90;;;;;;4973815;28;20091;-64
2023/07/23 10:47:57;;;;;;;44.08;39.88;;;21.80;99.90;;;;;;4974218;28;20043;-63
2023/07/23 10:50:27;;;;;;;43.28;39.28;;;22.40;99.90;;;;;;4975788;28;20098;-64
2023/07/23 10:53:00;;;;;;;43.22;39.05;;;22.30;99.90;;;;;;4973990;28;20444;-64
2023/07/23 10:55:34;;;;;;;41.65;37.83;;;22.40;99.90;;;;;;4973531;28;20551;-64
2023/07/23 10:58:08;;;;;;;42.78;38.88;;;21.20;99.90;;;;;;4973748;28;20133;-64
2023/07/23 11:00:34;;;;;;;43.25;39.03;;;20.90;99.90;;;;;;4973405;28;20043;-63
2023/07/23 11:03:00;;;;;;;42.70;38.45;;;22.60;99.90;;;;;;4972342;28;20113;-63
2023/07/23 11:05:26;;;;;;;42.03;38.30;;;19.80;99.90;;;;;;4972891;28;20051;-63
2023/07/23 11:08:23;;;;;;;41.00;36.97;;;22.30;99.90;;;;;;4973593;28;20438;-63
2023/07/23 11:10:59;;;;;;;41.67;37.88;;;20.00;99.90;;;;;;4967062;28;20113;-64
2023/07/23 11:13:27;;;;;;;42.47;38.35;;;20.30;99.90;;;;;;4973548;28;20073;-64
2023/07/23 11:15:53;;;;;;;40.40;36.80;;;20.70;99.90;;;;;;4973073;28;20073;-63
2023/07/23 11:18:19;;;;;;;43.33;39.30;;;22.10;99.90;;;;;;4972969;28;20473;-63
2023/07/23 11:20:50;;;;;;;43.28;39.33;;;22.70;99.90;;;;;;4972704;28;20053;-64
2023/07/23 11:23:17;;;;;;;41.65;37.95;;;22.80;99.90;;;;;;4973289;28;20129;-63
2023/07/23 11:25:43;;;;;;;42.72;38.90;;;20.40;99.90;;;;;;4971300;28;20053;-63
2023/07/23 11:28:12;;;;;;;43.25;39.42;;;22.90;99.90;;;;;;4965845;28;20117;-63
2023/07/23 11:30:38;;;;;;;41.53;37.70;;;23.00;99.90;;;;;;4961749;28;20055;-64
2023/07/23 11:33:04;;;;;;;42.53;38.83;;;22.70;99.90;;;;;;4972731;28;20046;-63
2023/07/23 11:35:31;;;;;;;42.97;39.17;;;23.10;99.90;;;;;;4972629;28;20066;-63
2023/07/23 11:38:06;;;;;;;41.63;38.00;;;23.10;99.90;;;;;;4972708;28;20097;-63
2023/07/23 11:40:32;;;;;;;42.40;38.10;;;20.90;99.90;;;;;;4972693;28;20037;-63
2023/07/23 11:43:05;;;;;;;39.88;36.55;;;20.50;99.90;;;;;;4971455;28;20574;-63
2023/07/23 11:45:31;;;;;;;40.65;37.05;;;22.80;99.90;;;;;;4971173;28;20039;-63
2023/07/23 11:47:57;;;;;;;40.83;37.22;;;22.80;99.90;;;;;;4972980;28;20549;-64
2023/07/23 11:50:24;;;;;;;40.58;37.15;;;23.30;99.90;;;;;;4972809;28;20129;-63
2023/07/23 11:52:51;;;;;;;40.53;37.00;;;23.40;99.90;;;;;;4971863;28;20477;-64
2023/07/23 11:55:25;;;;;;;43.42;39.72;;;21.10;99.90;;;;;;4972422;28;20432;-64
2023/07/23 11:57:55;;;;;;;45.20;41.30;;;24.10;99.90;;;;;;4972710;28;20445;-64
2023/07/23 12:00:48;;;;;;;45.05;40.85;;;22.70;99.90;;;;;;4971032;28;20098;-64
2023/07/23 12:03:15;;;;;;;43.17;39.22;;;22.40;99.90;;;;;;4971863;28;20062;-63
2023/07/23 12:05:41;;;;;;;42.42;38.72;;;24.20;99.90;;;;;;4971783;28;20047;-64
2023/07/23 12:08:06;;;;;;;43.17;39.28;;;23.20;99.90;;;;;;4972286;28;20400;-64
2023/07/23 12:10:33;;;;;;;43.42;39.30;;;21.70;99.90;;;;;;4972245;28;20035;-64
2023/07/23 12:13:10;;;;;;;44.15;40.15;;;21.40;99.90;;;;;;4972058;28;20038;-63
2023/07/23 12:15:40;;;;;;;44.20;39.85;;;23.70;99.90;;;;;;4972097;28;20490;-63
2023/07/23 12:18:09;;;;;;;44.40;39.72;;;21.80;99.90;;;;;;4972217;28;20094;-63
2023/07/23 12:20:34;;;;;;;43.00;38.88;;;23.60;99.90;;;;;;4971655;28;20049;-63
2023/07/23 12:23:01;;;;;;;43.05;38.88;;;22.30;99.90;;;;;;4971289;28;20121;-63
2023/07/23 12:25:27;;;;;;;41.83;37.70;;;21.60;99.90;;;;;;4970531;28;20043;-63
2023/07/23 12:27:53;;;;;;;39.58;35.78;;;22.40;99.90;;;;;;4968414;28;20109;-63